Time;durP1;ratioP1;P1;durP2;ratioP2;P2;SDS_P1;SDS_P2;PMS_P1;PMS_P2;Temp;Humidity;BMP_temperature;BMP_pressure;BME280_temperature;BME280_humidity;BME280_pressure;Samples;Min_cycle;Max_cycle;Signal;HPM_P1;HPM_P2
2022/11/28 00:00:57;;;;;;;26.02;18.00;;;;;;;6.55;100.00;100890.34;4993008;28;20049;-69
2022/11/28 00:03:23;;;;;;;27.02;18.17;;;;;;;6.24;100.00;100833.84;4993021;28;20485;-69
2022/11/28 00:05:49;;;;;;;26.38;18.15;;;;;;;6.44;100.00;100892.81;4991435;28;20041;-69
2022/11/28 00:08:14;;;;;;;26.08;17.42;;;;;;;6.31;100.00;100881.00;4992918;28;20034;-69
2022/11/28 00:10:40;;;;;;;26.17;17.85;;;;;;;6.20;100.00;100849.81;4992272;28;20045;-70
2022/11/28 00:13:06;;;;;;;27.80;17.52;;;;;;;6.46;100.00;100893.69;4991615;28;20413;-69
2022/11/28 00:15:32;;;;;;;27.58;18.55;;;;;;;6.17;100.00;100841.38;4992761;28;20430;-70
2022/11/28 00:17:57;;;;;;;27.38;18.60;;;;;;;6.41;100.00;100889.44;4992183;28;20460;-70
2022/11/28 00:20:22;;;;;;;29.50;18.25;;;;;;;6.53;100.00;100867.63;4990398;28;20018;-69
2022/11/28 00:22:48;;;;;;;26.15;17.17;;;;;;;6.52;100.00;100865.06;4992578;28;20053;-70
2022/11/28 00:25:13;;;;;;;27.55;18.42;;;;;;;6.32;100.00;100871.75;4992462;28;20035;-69
2022/11/28 00:27:39;;;;;;;27.48;18.55;;;;;;;6.27;100.00;100838.91;4992345;28;20036;-70
2022/11/28 00:30:05;;;;;;;27.65;17.73;;;;;;;6.08;100.00;100805.19;5007481;28;20030;-69
2022/11/28 00:32:30;;;;;;;28.98;18.58;;;;;;;6.52;100.00;100868.44;4991646;28;20045;-70
2022/11/28 00:34:56;;;;;;;27.40;18.42;;;;;;;6.39;100.00;100833.91;4992659;28;20474;-70
2022/11/28 00:37:21;;;;;;;30.38;18.67;;;;;;;6.72;100.00;100866.81;4991155;28;20342;-69
2022/11/28 00:39:46;;;;;;;29.33;18.65;;;;;;;6.36;100.00;100818.72;4990742;28;20136;-69
2022/11/28 00:42:12;;;;;;;30.10;19.70;;;;;;;6.35;100.00;100869.22;4992447;28;20394;-69
2022/11/28 00:44:37;;;;;;;27.67;18.58;;;;;;;6.17;100.00;100821.19;4991974;28;20505;-69
2022/11/28 00:47:03;;;;;;;27.92;19.17;;;;;;;6.63;100.00;100866.81;4990554;28;20033;-69
2022/11/28 00:49:28;;;;;;;31.35;19.98;;;;;;;6.37;100.00;100875.13;4991559;28;20453;-68
2022/11/28 00:51:53;;;;;;;31.60;19.25;;;;;;;6.58;100.00;100868.44;4992141;28;20038;-69
2022/11/28 00:54:19;;;;;;;28.33;18.98;;;;;;;6.41;100.00;100822.13;4991383;28;20446;-68
2022/11/28 00:56:44;;;;;;;29.05;19.00;;;;;;;6.57;100.00;100851.63;4991871;28;20041;-69
2022/11/28 00:59:10;;;;;;;27.95;18.35;;;;;;;6.65;100.00;100865.13;4990477;28;20035;-69
2022/11/28 01:01:38;;;;;;;29.00;18.25;;;;;;;6.40;100.00;100854.94;4991601;28;20409;-69
2022/11/28 01:04:07;;;;;;;27.50;18.00;;;;;;;6.67;100.00;100847.44;4991094;28;20038;-69
2022/11/28 01:06:36;;;;;;;26.20;17.67;;;;;;;6.57;100.00;100844.06;4991699;28;20412;-69
2022/11/28 01:09:09;;;;;;;27.48;18.02;;;;;;;6.50;100.00;100846.53;4990194;28;20056;-69
2022/11/28 01:11:37;;;;;;;27.52;17.55;;;;;;;6.31;100.00;100802.75;4989986;28;20053;-69
2022/11/28 01:14:04;;;;;;;29.13;18.15;;;;;;;6.68;100.00;100854.16;4991857;28;20035;-69
2022/11/28 01:16:29;;;;;;;27.45;17.70;;;;;;;6.26;100.00;100789.25;4991546;28;20509;-69
2022/11/28 01:18:55;;;;;;;26.58;17.92;;;;;;;6.67;100.00;100855.00;4990998;28;20034;-69
2022/11/28 01:21:20;;;;;;;28.65;18.70;;;;;;;6.35;100.00;100819.59;4991244;28;20041;-69
2022/11/28 01:23:46;;;;;;;26.88;18.02;;;;;;;6.22;100.00;100791.78;4991366;28;20077;-70
2022/11/28 01:26:21;;;;;;;29.13;18.95;;;;;;;6.31;100.00;100797.69;4991191;28;20026;-69
2022/11/28 01:28:47;;;;;;;28.92;18.95;;;;;;;6.33;100.00;100792.63;4993131;28;20126;-68
2022/11/28 01:31:16;;;;;;;29.48;18.10;;;;;;;6.39;100.00;100793.50;4990959;28;20077;-69
2022/11/28 01:33:42;;;;;;;28.23;17.58;;;;;;;6.36;100.00;100788.44;4991059;28;20060;-68
2022/11/28 01:36:08;;;;;;;27.02;18.27;;;;;;;6.03;100.00;100755.53;4989854;28;20034;-68
2022/11/28 01:38:34;;;;;;;27.98;18.27;;;;;;;6.52;100.00;100828.03;4991200;28;20054;-69
2022/11/28 01:41:00;;;;;;;28.20;18.13;;;;;;;6.50;100.00;100827.19;5006951;28;20435;-69
2022/11/28 01:43:26;;;;;;;29.60;18.35;;;;;;;6.62;100.00;100816.25;5002897;28;20073;-69
2022/11/28 01:45:51;;;;;;;29.33;18.25;;;;;;;6.76;100.00;100807.84;4990802;28;20030;-69
2022/11/28 01:48:22;;;;;;;30.13;17.75;;;;;;;6.35;100.00;100776.66;4991147;28;20117;-69
2022/11/28 01:50:52;;;;;;;26.80;18.08;;;;;;;6.48;100.00;100801.06;4989557;28;20091;-69
2022/11/28 01:53:17;;;;;;;25.80;18.10;;;;;;;6.29;100.00;100774.13;4990887;28;20029;-69
2022/11/28 01:55:51;;;;;;;28.85;18.15;;;;;;;6.39;100.00;100775.81;4990819;28;20030;-69
2022/11/28 01:58:17;;;;;;;30.60;18.90;;;;;;;6.38;100.00;100774.13;4990483;28;20125;-69
2022/11/28 02:00:42;;;;;;;28.48;18.58;;;;;;;6.18;100.00;100759.78;4991077;28;20372;-69
2022/11/28 02:03:16;;;;;;;28.38;18.88;;;;;;;6.64;100.00;100804.47;4990880;28;20030;-69
2022/11/28 02:05:42;;;;;;;42.92;27.17;;;;;;;6.43;100.00;100761.50;4990896;28;20121;-69
2022/11/28 02:08:08;;;;;;;38.30;25.05;;;;;;;6.54;100.00;100795.19;4990779;28;20034;-69
2022/11/28 02:11:05;;;;;;;42.42;27.70;;;;;;;6.52;100.00;100802.78;4990596;28;20031;-69
2022/11/28 02:13:58;;;;;;;38.75;24.95;;;;;;;6.43;100.00;100792.66;4989506;28;20061;-67
2022/11/28 02:16:53;;;;;;;39.28;26.70;;;;;;;6.48;100.00;100790.13;4996437;28;20027;-69
2022/11/28 02:19:24;;;;;;;30.88;20.58;;;;;;;6.68;100.00;100799.44;4996708;28;20030;-69
2022/11/28 02:22:20;;;;;;;18.42;13.13;;;;;;;6.79;100.00;100804.50;4997172;28;20069;-69
2022/11/28 02:25:00;;;;;;;22.42;15.40;;;;;;;6.67;100.00;100812.91;4997538;28;20045;-69
2022/11/28 02:27:37;;;;;;;22.17;14.93;;;;;;;6.93;100.00;100815.47;4996978;28;20065;-69
2022/11/28 02:30:14;;;;;;;20.00;14.13;;;;;;;6.82;100.00;100809.53;4997392;28;20113;-69
2022/11/28 02:33:01;;;;;;;21.58;14.82;;;;;;;6.73;100.00;100799.44;4999505;28;20042;-69
2022/11/28 02:35:40;;;;;;;22.25;13.68;;;;;;;6.44;100.00;100758.97;5008853;28;20030;-68
2022/11/28 02:38:17;;;;;;;22.10;14.45;;;;;;;6.46;100.00;100805.28;4996851;28;20027;-69
2022/11/28 02:41:06;;;;;;;19.35;12.75;;;;;;;6.72;100.00;100803.63;4997221;28;20034;-69
2022/11/28 02:43:42;;;;;;;19.80;13.07;;;;;;;6.91;100.00;100812.91;4995648;28;20026;-69
2022/11/28 02:46:26;;;;;;;17.33;12.40;;;;;;;6.70;100.00;100782.59;4997033;28;20030;-69
2022/11/28 02:49:05;;;;;;;16.75;12.55;;;;;;;6.71;100.00;100821.34;4997440;28;20100;-69
2022/11/28 02:51:37;;;;;;;16.13;11.82;;;;;;;6.75;100.00;100821.34;4996308;28;20120;-70
2022/11/28 02:54:05;;;;;;;17.58;11.90;;;;;;;6.71;100.00;100804.50;4999602;28;20026;-70
2022/11/28 02:56:30;;;;;;;16.48;12.25;;;;;;;6.75;100.00;100823.88;5006025;28;20050;-70
2022/11/28 02:58:56;;;;;;;17.25;12.35;;;;;;;6.63;100.00;100749.75;4997663;28;20061;-70
2022/11/28 03:01:30;;;;;;;18.95;12.85;;;;;;;6.82;100.00;100817.97;4996853;28;20422;-70
2022/11/28 03:04:05;;;;;;;16.98;12.30;;;;;;;6.76;100.00;100819.63;4995674;28;20092;-69
2022/11/28 03:06:33;;;;;;;19.70;12.40;;;;;;;6.97;100.00;100810.38;4996891;28;20764;-68
2022/11/28 03:08:59;;;;;;;16.17;11.48;;;;;;;6.42;100.00;100767.41;4995600;28;20117;-69
2022/11/28 03:12:02;;;;;;;15.68;11.70;;;;;;;6.84;100.00;100812.91;4996820;28;20205;-69
2022/11/28 03:14:39;;;;;;;16.35;11.77;;;;;;;6.74;100.00;100806.16;4986272;28;20042;-69
2022/11/28 03:17:13;;;;;;;19.13;11.88;;;;;;;6.72;100.00;100820.47;5001514;28;20045;-69
2022/11/28 03:19:44;;;;;;;16.02;11.73;;;;;;;6.46;100.00;100762.34;5000804;28;20030;-69
2022/11/28 03:22:25;;;;;;;11.45;8.65;;;;;;;6.75;100.00;100770.81;4997032;28;20026;-70
2022/11/28 03:25:10;;;;;;;16.15;11.50;;;;;;;6.53;100.00;100769.13;4996696;28;20026;-70
2022/11/28 03:27:53;;;;;;;14.93;11.20;;;;;;;6.74;100.00;100807.00;5008083;28;20466;-70
2022/11/28 03:30:31;;;;;;;15.65;10.55;;;;;;;6.86;100.00;100801.97;4995444;28;20061;-69
2022/11/28 03:32:59;;;;;;;13.38;9.90;;;;;;;6.61;100.00;100756.47;5011823;28;20038;-70
2022/11/28 03:35:29;;;;;;;14.52;10.40;;;;;;;6.71;100.00;100809.56;5010277;28;20087;-70
2022/11/28 03:38:01;;;;;;;13.98;10.43;;;;;;;6.50;100.00;100769.09;4997968;28;20031;-70
2022/11/28 03:40:41;;;;;;;13.20;9.90;;;;;;;6.91;100.00;100817.97;5003013;28;20053;-71
2022/11/28 03:43:11;;;;;;;13.65;9.48;;;;;;;6.83;100.00;100822.16;5011749;28;20030;-71
2022/11/28 03:45:45;;;;;;;14.02;10.45;;;;;;;6.78;100.00;100816.28;5013138;28;20034;-69
2022/11/28 03:48:22;;;;;;;11.35;8.85;;;;;;;6.78;100.00;100818.81;5012841;28;20173;-70
2022/11/28 03:51:12;;;;;;;12.50;8.80;;;;;;;6.81;100.00;100826.38;5012336;28;20037;-69
2022/11/28 03:53:50;;;;;;;13.15;8.75;;;;;;;6.74;100.00;100788.47;5000767;28;20061;-69
2022/11/28 03:56:23;;;;;;;12.00;9.20;;;;;;;6.99;100.00;100833.16;5012511;28;20030;-70
2022/11/28 03:58:57;;;;;;;11.60;9.00;;;;;;;6.73;100.00;100795.25;5012249;28;20136;-70
2022/11/28 04:01:29;;;;;;;11.70;8.63;;;;;;;6.93;100.00;100828.09;5011101;28;20030;-70
2022/11/28 04:04:17;;;;;;;13.18;9.45;;;;;;;6.96;100.00;100831.47;5012918;28;20064;-70
2022/11/28 04:06:57;;;;;;;11.95;8.73;;;;;;;6.96;100.00;100828.94;4993292;28;20049;-70
2022/11/28 04:09:54;;;;;;;14.27;9.38;;;;;;;6.83;100.00;100839.03;5012768;28;20057;-69
2022/11/28 04:12:43;;;;;;;11.75;8.23;;;;;;;6.69;100.00;100817.97;5012092;28;20464;-69
2022/11/28 04:15:16;;;;;;;11.73;8.43;;;;;;;6.50;100.00;100788.44;5010635;28;20040;-70
2022/11/28 04:18:15;;;;;;;10.88;8.07;;;;;;;6.85;100.00;100830.59;5012026;28;20026;-70
2022/11/28 04:21:02;;;;;;;11.32;7.43;;;;;;;6.59;100.00;100789.31;5009985;28;20132;-70
2022/11/28 04:23:29;;;;;;;9.93;7.57;;;;;;;7.00;100.00;100842.41;5012217;28;20492;-69
2022/11/28 04:26:02;;;;;;;10.70;7.85;;;;;;;6.66;100.00;100785.94;5012180;28;20048;-69
2022/11/28 04:28:32;;;;;;;10.30;7.68;;;;;;;6.92;100.00;100821.34;5011503;28;20034;-69
2022/11/28 04:31:01;;;;;;;9.95;7.53;;;;;;;6.73;100.00;100817.13;5010600;28;20030;-70
2022/11/28 04:33:30;;;;;;;11.88;8.35;;;;;;;8.00;100.00;100830.44;5010521;28;20501;-70
2022/11/28 04:35:57;;;;;;;12.43;8.90;;;;;;;7.81;100.00;100743.59;5009684;28;20408;-71
2022/11/28 04:38:25;;;;;;;10.98;7.90;;;;;;;7.06;100.00;100796.91;5012005;28;20493;-70
2022/11/28 04:40:59;;;;;;;10.65;7.82;;;;;;;6.68;100.00;100817.09;5011634;28;20037;-70
2022/11/28 04:43:30;;;;;;;12.05;7.35;;;;;;;6.83;100.00;100854.19;5010613;28;20052;-69
2022/11/28 04:46:04;;;;;;;10.32;7.72;;;;;;;6.89;100.00;100849.97;5010464;28;20034;-70
2022/11/28 04:48:30;;;;;;;10.50;7.50;;;;;;;6.98;100.00;100860.09;5011646;28;20034;-70
2022/11/28 04:51:18;;;;;;;13.88;7.70;;;;;;;6.80;100.00;100861.75;5011635;28;20028;-71
2022/11/28 04:54:14;;;;;;;10.43;8.05;;;;;;;6.98;100.00;100861.78;5011339;28;20116;-70
2022/11/28 04:56:56;;;;;;;11.18;8.05;;;;;;;6.82;100.00;100834.81;5009266;28;20069;-70
2022/11/28 04:59:25;;;;;;;10.85;8.18;;;;;;;6.56;100.00;100831.41;5010639;28;20037;-69
2022/11/28 05:01:51;;;;;;;9.75;7.85;;;;;;;6.79;100.00;100857.56;5009386;28;20100;-69
2022/11/28 05:04:16;;;;;;;11.32;7.70;;;;;;;6.38;100.00;100764.03;5011417;28;20077;-69
2022/11/28 05:06:42;;;;;;;11.43;7.78;;;;;;;6.58;100.00;100817.09;5010588;28;20058;-69
2022/11/28 05:09:10;;;;;;;10.68;7.88;;;;;;;6.78;100.00;100855.84;5010827;28;20030;-69
2022/11/28 05:11:36;;;;;;;12.73;8.63;;;;;;;6.72;100.00;100865.94;5009316;28;20372;-69
2022/11/28 05:14:01;;;;;;;9.40;7.47;;;;;;;6.64;100.00;100850.78;5010788;28;20038;-69
2022/11/28 05:16:26;;;;;;;14.50;8.48;;;;;;;6.54;100.00;100813.72;5010125;28;20017;-69
2022/11/28 05:18:52;;;;;;;11.50;8.48;;;;;;;6.81;100.00;100846.59;5010764;28;20030;-69
2022/11/28 05:21:17;;;;;;;11.45;8.57;;;;;;;6.70;100.00;100844.91;5011192;28;20045;-68
2022/11/28 05:23:44;;;;;;;14.20;9.70;;;;;;;6.78;100.00;100851.66;5010290;28;20038;-70
2022/11/28 05:26:12;;;;;;;14.27;9.57;;;;;;;6.50;100.00;100818.75;5010321;28;20475;-70
2022/11/28 05:28:38;;;;;;;15.63;10.13;;;;;;;6.62;100.00;100854.13;5010830;28;20026;-69
2022/11/28 05:31:04;;;;;;;16.63;10.13;;;;;;;6.72;100.00;100831.44;5009717;28;20026;-70
2022/11/28 05:33:31;;;;;;;15.07;9.90;;;;;;;6.67;100.00;100865.97;5009175;28;20026;-69
2022/11/28 05:36:05;;;;;;;11.48;9.05;;;;;;;6.28;100.00;100779.16;5008745;28;20022;-69
2022/11/28 05:38:31;;;;;;;11.32;8.32;;;;;;;6.46;100.00;100828.00;4991245;28;20046;-70
2022/11/28 05:40:57;;;;;;;12.57;8.85;;;;;;;6.25;100.00;100807.78;4989782;28;20438;-70
2022/11/28 05:43:22;;;;;;;15.15;9.52;;;;;;;6.51;100.00;100816.25;4991154;28;20180;-70
2022/11/28 05:45:47;;;;;;;12.85;8.98;;;;;;;6.33;100.00;100780.84;5006845;28;20060;-71
2022/11/28 05:48:13;;;;;;;14.60;10.32;;;;;;;6.68;100.00;100862.59;5010322;28;20029;-71
2022/11/28 05:50:40;;;;;;;13.40;10.25;;;;;;;6.59;100.00;100813.72;5008221;28;20029;-70
2022/11/28 05:53:05;;;;;;;14.43;9.98;;;;;;;6.75;100.00;100848.28;5007775;28;20117;-71
2022/11/28 05:55:31;;;;;;;14.52;9.77;;;;;;;6.72;100.00;100861.75;5009479;28;20026;-70
2022/11/28 05:57:56;;;;;;;13.57;10.45;;;;;;;6.36;100.00;100790.94;5007628;28;20026;-70
2022/11/28 06:00:22;;;;;;;16.13;11.40;;;;;;;6.77;100.00;100849.94;5007203;28;20152;-70
2022/11/28 06:02:47;;;;;;;14.32;9.77;;;;;;;6.71;100.00;100842.41;5008963;28;20030;-70
2022/11/28 06:05:13;;;;;;;13.98;10.23;;;;;;;6.66;100.00;100854.16;5009491;28;20405;-70
2022/11/28 06:07:38;;;;;;;14.32;10.35;;;;;;;6.64;100.00;100825.53;5009687;28;20485;-70
2022/11/28 06:10:04;;;;;;;13.05;10.20;;;;;;;6.65;100.00;100844.91;5008972;28;20037;-68
2022/11/28 06:12:30;;;;;;;13.35;9.88;;;;;;;6.69;100.00;100840.69;5008662;28;20038;-68
2022/11/28 06:14:55;;;;;;;12.48;9.27;;;;;;;6.74;100.00;100818.78;5007354;28;20029;-68
2022/11/28 06:17:21;;;;;;;15.82;10.20;;;;;;;6.97;100.00;100853.34;5010190;28;20146;-68
2022/11/28 06:19:46;;;;;;;14.60;10.88;;;;;;;6.79;100.00;100832.28;5008729;28;20022;-68
2022/11/28 06:22:11;;;;;;;20.65;11.10;;;;;;;6.80;100.00;100854.19;5010497;28;20107;-68
2022/11/28 06:24:37;;;;;;;17.70;11.57;;;;;;;6.81;100.00;100830.59;5010399;28;20030;-68
2022/11/28 06:27:02;;;;;;;48.40;28.73;;;;;;;6.74;100.00;100808.69;5009779;28;20041;-68
2022/11/28 06:29:28;;;;;;;22.58;14.30;;;;;;;6.68;100.00;100801.09;5009853;28;20033;-67
2022/11/28 06:31:54;;;;;;;21.42;15.25;;;;;;;7.10;100.00;100838.19;5010581;28;20052;-67
2022/11/28 06:34:21;;;;;;;27.33;14.90;;;;;;;6.90;100.00;100838.19;5010153;28;20034;-68
2022/11/28 06:36:46;;;;;;;21.75;14.45;;;;;;;6.96;100.00;100849.16;5010419;28;20129;-68
2022/11/28 06:39:14;;;;;;;28.98;17.98;;;;;;;6.67;100.00;100807.00;5009701;28;20129;-67
2022/11/28 06:41:40;;;;;;;44.15;25.48;;;;;;;7.09;100.00;100841.56;5008661;28;20481;-68
2022/11/28 06:44:05;;;;;;;34.35;20.00;;;;;;;6.87;100.00;100844.06;5009650;28;20101;-68
2022/11/28 06:46:31;;;;;;;29.92;17.35;;;;;;;6.55;100.00;100779.22;5009531;28;20065;-68
2022/11/28 06:48:56;;;;;;;27.00;16.38;;;;;;;6.68;100.00;100793.53;5009968;28;20068;-68
2022/11/28 06:51:21;;;;;;;28.60;16.70;;;;;;;6.96;100.00;100841.56;5009809;28;20060;-69
2022/11/28 06:53:47;;;;;;;29.55;17.02;;;;;;;6.93;100.00;100808.69;5009463;28;20056;-68
2022/11/28 06:56:16;;;;;;;36.92;21.80;;;;;;;6.85;100.00;100796.91;5010026;28;20121;-69
2022/11/28 06:58:43;;;;;;;43.03;23.27;;;;;;;7.24;100.00;100846.63;5009499;28;20095;-68
2022/11/28 07:01:17;;;;;;;72.07;38.47;;;;;;;7.06;100.00;100842.41;5009982;28;20034;-68
2022/11/28 07:03:43;;;;;;;121.88;64.07;;;;;;;6.90;100.00;100833.13;5013022;28;20100;-68
2022/11/28 07:06:10;;;;;;;65.45;40.97;;;;;;;6.69;100.00;100800.28;5013730;28;20058;-68
2022/11/28 07:08:36;;;;;;;108.28;60.67;;;;;;;6.85;100.00;100802.78;5013679;28;20026;-68
2022/11/28 07:11:10;;;;;;;120.43;66.63;;;;;;;6.90;100.00;100836.50;5013588;28;20029;-68
2022/11/28 07:13:35;;;;;;;105.75;62.13;;;;;;;6.86;100.00;100829.78;5013430;28;20034;-68
2022/11/28 07:16:01;;;;;;;69.25;41.10;;;;;;;6.99;100.00;100818.81;5011954;28;20036;-67
2022/11/28 07:18:26;;;;;;;68.43;37.20;;;;;;;7.08;100.00;100812.06;5013932;28;20021;-68
2022/11/28 07:20:52;;;;;;;56.67;36.88;;;;;;;6.58;100.00;100769.09;5013087;28;20440;-67
2022/11/28 07:23:17;;;;;;;41.70;27.45;;;;;;;6.82;100.00;100784.28;5012819;28;20055;-68
2022/11/28 07:25:43;;;;;;;33.63;20.60;;;;;;;6.97;100.00;100817.97;5011547;28;20029;-68
2022/11/28 07:28:08;;;;;;;37.22;25.02;;;;;;;6.90;100.00;100821.34;5013531;28;20034;-68
2022/11/28 07:30:33;;;;;;;44.85;31.50;;;;;;;7.01;100.00;100812.06;5012812;28;20030;-68
2022/11/28 07:32:59;;;;;;;38.90;27.92;;;;;;;6.98;100.00;100811.22;5013186;28;20030;-68
2022/11/28 07:35:25;;;;;;;32.28;23.10;;;;;;;6.61;100.00;100782.59;5013617;28;20124;-68
2022/11/28 07:37:50;;;;;;;43.65;28.42;;;;;;;6.95;100.00;100801.97;5013532;28;20421;-68
2022/11/28 07:40:18;;;;;;;33.47;23.50;;;;;;;6.68;100.00;100758.16;5010475;28;20120;-68
2022/11/28 07:42:44;;;;;;;33.78;21.90;;;;;;;7.06;100.00;100796.91;5013018;28;20034;-69
2022/11/28 07:45:10;;;;;;;31.10;20.95;;;;;;;6.88;100.00;100791.84;5012640;28;20048;-69
2022/11/28 07:47:36;;;;;;;27.30;18.27;;;;;;;6.71;100.00;100796.06;5012220;28;20041;-68
2022/11/28 07:50:01;;;;;;;29.15;18.42;;;;;;;6.60;100.00;100790.16;5012755;28;20026;-68
2022/11/28 07:52:26;;;;;;;26.42;17.70;;;;;;;6.29;100.00;100740.44;5012712;28;20029;-69
2022/11/28 07:54:52;;;;;;;34.75;19.60;;;;;;;6.26;100.00;100733.69;5012691;28;20125;-68
2022/11/28 07:57:17;;;;;;;123.22;49.50;;;;;;;6.51;100.00;100770.78;5012337;28;20100;-69
2022/11/28 07:59:43;;;;;;;30.30;18.95;;;;;;;6.52;100.00;100737.09;5012553;28;20081;-68
2022/11/28 08:02:12;;;;;;;35.35;23.85;;;;;;;6.53;100.00;100738.81;5012536;28;20030;-68
2022/11/28 08:04:38;;;;;;;27.50;20.15;;;;;;;6.56;100.00;100733.75;5012627;28;20030;-68
2022/11/28 08:07:03;;;;;;;29.23;21.38;;;;;;;7.12;100.00;100774.16;5012160;28;20037;-68
2022/11/28 08:09:30;;;;;;;25.30;17.95;;;;;;;6.98;100.00;100759.00;5012501;28;20176;-68
2022/11/28 08:11:56;;;;;;;23.92;16.77;;;;;;;6.52;100.00;100729.53;5012642;28;20041;-69
2022/11/28 08:14:21;;;;;;;24.55;16.60;;;;;;;6.57;100.00;100727.00;5011942;28;20409;-68
2022/11/28 08:16:48;;;;;;;19.75;14.00;;;;;;;6.94;100.00;100772.47;5012094;28;20034;-69
2022/11/28 08:19:14;;;;;;;20.50;14.00;;;;;;;7.09;100.00;100766.56;5012297;28;20041;-69
2022/11/28 08:21:39;;;;;;;18.35;12.77;;;;;;;6.81;100.00;100729.53;5011870;28;20041;-70
2022/11/28 08:24:06;;;;;;;19.42;13.27;;;;;;;6.92;100.00;100758.16;5012240;28;20486;-69
2022/11/28 08:26:33;;;;;;;19.50;12.70;;;;;;;7.09;100.00;100769.06;5012371;28;20026;-69
2022/11/28 08:28:59;;;;;;;14.63;10.43;;;;;;;7.01;100.00;100753.94;5010787;28;20555;-69
2022/11/28 08:31:28;;;;;;;15.85;11.35;;;;;;;7.05;100.00;100771.63;5010305;28;20057;-69
2022/11/28 08:33:55;;;;;;;14.48;10.43;;;;;;;7.18;100.00;100755.59;5011677;28;20132;-69
2022/11/28 08:36:21;;;;;;;16.23;11.20;;;;;;;7.37;100.00;100759.78;5012034;28;20460;-70
2022/11/28 08:38:48;;;;;;;12.00;8.85;;;;;;;7.15;100.00;100755.63;5010173;28;20413;-68
2022/11/28 08:41:17;;;;;;;10.35;8.02;;;;;;;7.10;100.00;100721.91;5011770;28;20067;-68
2022/11/28 08:43:43;;;;;;;13.05;9.50;;;;;;;7.27;100.00;100770.78;5011883;28;20034;-69
2022/11/28 08:46:11;;;;;;;10.02;7.15;;;;;;;6.95;100.00;100718.56;5011545;28;20366;-68
2022/11/28 08:48:38;;;;;;;6.35;4.43;;;;;;;7.53;100.00;100794.28;5011559;28;20033;-68
2022/11/28 08:51:04;;;;;;;8.00;5.55;;;;;;;7.46;100.00;100780.00;5011937;28;20033;-68
2022/11/28 08:53:30;;;;;;;7.03;5.50;;;;;;;7.36;100.00;100764.00;5011379;28;20130;-69
2022/11/28 08:55:55;;;;;;;7.97;6.00;;;;;;;7.18;100.00;100720.19;5010327;28;20132;-69
2022/11/28 08:58:21;;;;;;;7.10;4.95;;;;;;;7.28;100.00;100734.50;5011563;28;20026;-68
2022/11/28 09:00:46;;;;;;;6.50;4.53;;;;;;;7.09;100.00;100726.09;5011025;28;20175;-69
2022/11/28 09:03:15;;;;;;;14.38;8.23;;;;;;;7.64;100.00;100774.88;5011195;28;20691;-68
2022/11/28 09:05:42;;;;;;;7.20;4.95;;;;;;;7.29;100.00;100728.63;5011143;28;20496;-68
2022/11/28 09:08:08;;;;;;;6.63;4.10;;;;;;;7.44;100.00;100769.88;5011034;28;20041;-68
2022/11/28 09:10:38;;;;;;;10.27;4.40;;;;;;;7.54;100.00;100758.88;5011474;28;20034;-69
2022/11/28 09:13:04;;;;;;;10.45;4.72;;;;;;;7.54;100.00;100765.63;5011177;28;20207;-68
2022/11/28 09:15:30;;;;;;;7.70;4.25;;;;;;;7.51;100.00;100755.50;5011202;28;20045;-68
2022/11/28 09:17:55;;;;;;;9.90;3.97;;;;;;;7.67;100.00;100745.34;5010040;28;20497;-69
2022/11/28 09:20:20;;;;;;;6.82;4.28;;;;;;;7.56;100.00;100743.69;5010743;28;20479;-68
2022/11/28 09:22:46;;;;;;;8.60;4.68;;;;;;;7.53;100.00;100738.63;5011043;28;20026;-68
2022/11/28 09:25:13;;;;;;;9.52;6.05;;;;;;;7.61;100.00;100755.47;5008988;28;20030;-68
2022/11/28 09:27:38;;;;;;;7.35;4.93;;;;;;;7.42;100.00;100699.91;5011273;28;20735;-69
2022/11/28 09:30:05;;;;;;;10.20;5.90;;;;;;;7.69;100.00;100730.16;5011243;28;20033;-68
2022/11/28 09:32:30;;;;;;;8.27;6.25;;;;;;;7.23;100.00;100694.06;5010736;28;20037;-69
2022/11/28 09:34:56;;;;;;;12.65;7.03;;;;;;;7.74;100.00;100738.56;5010841;28;20034;-69
2022/11/28 09:37:21;;;;;;;9.93;7.22;;;;;;;7.66;100.00;100720.06;5011113;28;20504;-68
2022/11/28 09:39:46;;;;;;;7.60;5.28;;;;;;;7.80;100.00;100716.59;5010705;28;20053;-69
2022/11/28 09:42:35;;;;;;;5.95;4.85;;;;;;;7.77;100.00;100718.31;5011200;28;20112;-70
2022/11/28 09:45:05;;;;;;;10.65;5.13;;;;;;;7.57;100.00;100704.88;5010359;28;20448;-69
2022/11/28 09:47:35;;;;;;;9.05;5.63;;;;;;;7.83;100.00;100701.41;5010309;28;20110;-69
2022/11/28 09:50:15;;;;;;;8.23;4.53;;;;;;;7.67;100.00;100694.72;5010285;28;20072;-68
2022/11/28 09:53:05;;;;;;;8.43;5.03;;;;;;;7.85;100.00;100702.22;5010292;28;20038;-68
2022/11/28 09:55:43;;;;;;;7.47;4.80;;;;;;;7.47;100.00;100648.44;5010446;28;20049;-68
2022/11/28 09:58:18;;;;;;;5.05;3.35;;;;;;;7.55;100.00;100659.38;5010731;28;20088;-69
2022/11/28 10:00:56;;;;;;;5.03;3.45;;;;;;;7.86;100.00;100698.03;5008885;28;20124;-67
2022/11/28 10:03:55;;;;;;;5.20;3.95;;;;;;;7.74;100.00;100650.00;5008937;28;20109;-69
2022/11/28 10:06:49;;;;;;;4.43;3.25;;;;;;;7.89;100.00;100708.13;5009874;28;20482;-67
2022/11/28 10:09:20;;;;;;;3.58;2.72;;;;;;;7.89;100.00;100708.13;5004598;28;20505;-68
2022/11/28 10:12:09;;;;;;;5.78;3.67;;;;;;;7.84;100.00;100709.84;5009730;28;20057;-68
2022/11/28 10:14:52;;;;;;;8.07;4.57;;;;;;;7.98;100.00;100692.91;5010096;28;20420;-67
2022/11/28 10:17:23;;;;;;;6.03;3.92;;;;;;;7.95;100.00;100697.09;5010479;28;20033;-68
2022/11/28 10:20:01;;;;;;;6.97;3.10;;;;;;;7.68;100.00;100661.00;5010639;28;20022;-68
2022/11/28 10:23:02;;;;;;;11.88;5.03;;;;;;;8.11;100.00;100704.63;5009007;28;20315;-69
2022/11/28 10:25:45;;;;;;;8.32;5.70;;;;;;;7.85;100.00;100687.03;5005612;28;20512;-69
2022/11/28 10:28:25;;;;;;;9.18;6.55;;;;;;;7.90;100.00;100679.44;5010485;28;20035;-69
2022/11/28 10:31:03;;;;;;;14.60;9.70;;;;;;;7.48;100.00;100604.59;5010410;28;20038;-67
2022/11/28 10:33:35;;;;;;;13.68;9.30;;;;;;;7.61;100.00;100639.09;5010292;28;20566;-69
2022/11/28 10:36:02;;;;;;;10.95;8.00;;;;;;;7.71;100.00;100666.03;5009687;28;20034;-67
2022/11/28 10:38:30;;;;;;;11.65;8.48;;;;;;;7.94;100.00;100667.59;5013946;28;20042;-68
2022/11/28 10:41:03;;;;;;;14.07;8.60;;;;;;;7.57;100.00;100598.63;5014113;28;20026;-69
2022/11/28 10:43:58;;;;;;;8.65;5.55;;;;;;;7.95;100.00;100666.72;5013924;28;20069;-68
2022/11/28 10:46:35;;;;;;;9.75;5.85;;;;;;;7.92;100.00;100667.63;5013885;28;20054;-68
2022/11/28 10:49:03;;;;;;;7.35;5.80;;;;;;;7.92;100.00;100657.50;5012902;28;20032;-67
2022/11/28 10:51:34;;;;;;;5.57;4.32;;;;;;;7.92;100.00;100667.63;5008813;28;20540;-68
2022/11/28 10:54:30;;;;;;;6.28;3.65;;;;;;;9.50;100.00;100650.91;4996255;28;20065;-69
2022/11/28 10:56:59;;;;;;;7.32;5.60;;;;;;;7.75;100.00;100601.91;4992930;28;20042;-67
2022/11/28 10:59:30;;;;;;;6.30;4.63;;;;;;;8.12;100.00;100653.09;4992573;28;20101;-67
2022/11/28 11:01:58;;;;;;;8.23;5.43;;;;;;;7.60;100.00;100579.25;4993009;28;20030;-68
2022/11/28 11:04:26;;;;;;;6.00;3.72;;;;;;;8.12;100.00;100659.88;4994273;28;20552;-68
2022/11/28 11:07:11;;;;;;;6.93;4.40;;;;;;;7.82;100.00;100616.19;4993960;28;20046;-67
2022/11/28 11:09:37;;;;;;;7.65;3.85;;;;;;;7.84;100.00;100613.66;4993901;28;20035;-68
2022/11/28 11:12:06;;;;;;;4.90;3.30;;;;;;;7.81;100.00;100624.63;4993613;28;20077;-68
2022/11/28 11:14:41;;;;;;;7.70;4.13;;;;;;;7.90;100.00;100644.81;4993606;28;20049;-69
2022/11/28 11:17:40;;;;;;;5.45;3.42;;;;;;;7.97;100.00;100640.56;4991954;28;20046;-68
2022/11/28 11:20:26;;;;;;;9.57;4.97;;;;;;;8.14;100.00;100660.72;4992777;28;20104;-69
2022/11/28 11:22:55;;;;;;;6.85;4.50;;;;;;;8.01;100.00;100641.38;4993119;28;20030;-69
2022/11/28 11:25:23;;;;;;;11.63;6.97;;;;;;;8.05;100.00;100633.75;4993039;28;20511;-69
2022/11/28 11:27:50;;;;;;;8.93;5.88;;;;;;;7.80;100.00;100624.66;4993272;28;20034;-67
2022/11/28 11:30:23;;;;;;;7.68;5.18;;;;;;;7.82;100.00;100611.13;4993099;28;20084;-69